createdAt,value
2023-02-27T00:00:02.212Z,3.62
2023-02-27T00:02:30.369Z,3.50
2023-02-27T00:04:58.539Z,3.57
2023-02-27T00:07:28.703Z,3.54
2023-02-27T00:09:56.420Z,3.50
2023-02-27T00:12:25.507Z,3.57
2023-02-27T00:14:53.230Z,3.81
2023-02-27T00:17:20.972Z,3.95
2023-02-27T00:19:48.686Z,3.82
2023-02-27T00:22:16.417Z,3.87
2023-02-27T00:24:44.148Z,3.98
2023-02-27T00:27:11.893Z,3.85
2023-02-27T00:29:41.004Z,3.80
2023-02-27T00:32:08.843Z,3.68
2023-02-27T00:34:36.626Z,3.77
2023-02-27T00:37:04.561Z,3.43
2023-02-27T00:39:32.325Z,3.48
2023-02-27T00:42:00.123Z,3.59
2023-02-27T00:44:27.917Z,3.55
2023-02-27T00:46:56.989Z,3.47
2023-02-27T00:49:25.398Z,3.75
2023-02-27T00:51:53.466Z,3.88
2023-02-27T00:54:21.167Z,3.61
2023-02-27T00:56:48.889Z,3.57
2023-02-27T00:59:16.627Z,3.69
2023-02-27T01:01:45.401Z,3.85
2023-02-27T01:04:14.765Z,3.69
2023-02-27T01:06:42.507Z,3.63
2023-02-27T01:09:10.336Z,3.44
2023-02-27T01:11:38.056Z,3.45
2023-02-27T01:14:06.185Z,3.40
2023-02-27T01:16:33.988Z,3.45
2023-02-27T01:19:01.746Z,3.60
2023-02-27T01:21:30.884Z,3.55
2023-02-27T01:23:58.659Z,3.59
2023-02-27T01:26:26.514Z,3.67
2023-02-27T01:28:54.267Z,3.72
2023-02-27T01:31:22.029Z,3.76
2023-02-27T01:33:50.062Z,3.59
2023-02-27T01:36:17.856Z,3.73
2023-02-27T01:38:46.962Z,3.60
2023-02-27T01:41:15.156Z,3.38
2023-02-27T01:43:57.701Z,3.66
2023-02-27T01:46:26.142Z,3.50
2023-02-27T01:48:59.520Z,3.08
2023-02-27T01:51:32.262Z,2.83
2023-02-27T01:54:02.366Z,2.93
2023-02-27T01:56:32.260Z,3.02
2023-02-27T01:59:03.473Z,3.32
2023-02-27T02:01:32.952Z,3.19
2023-02-27T02:04:06.722Z,3.16
2023-02-27T02:06:38.857Z,3.04
2023-02-27T02:09:09.794Z,3.20
2023-02-27T02:11:39.138Z,3.23
2023-02-27T02:14:10.784Z,3.25
2023-02-27T02:17:02.949Z,3.28
2023-02-27T02:19:55.272Z,3.37
2023-02-27T02:22:58.571Z,3.45
2023-02-27T02:26:06.372Z,3.33
2023-02-27T02:28:59.386Z,3.10
2023-02-27T02:31:49.181Z,3.21
2023-02-27T02:34:54.499Z,3.09
2023-02-27T02:38:04.077Z,3.30
2023-02-27T02:40:40.875Z,3.25
2023-02-27T02:43:16.254Z,3.16
2023-02-27T02:45:51.029Z,3.21
2023-02-27T02:48:23.411Z,3.22
2023-02-27T02:50:57.421Z,3.25
2023-02-27T02:53:37.298Z,3.03
2023-02-27T02:56:11.199Z,3.17
2023-02-27T02:58:46.980Z,3.08
2023-02-27T03:01:17.946Z,3.07
2023-02-27T03:03:50.245Z,2.98
2023-02-27T03:06:23.315Z,3.17
2023-02-27T03:08:56.681Z,3.06
2023-02-27T03:11:30.721Z,3.12
2023-02-27T03:14:04.351Z,3.02
2023-02-27T03:16:36.945Z,3.05
2023-02-27T03:19:11.717Z,2.99
2023-02-27T03:21:44.786Z,3.05
2023-02-27T03:24:19.928Z,2.94
2023-02-27T03:26:51.851Z,2.73
2023-02-27T03:29:24.728Z,3.01
2023-02-27T03:31:58.253Z,2.89
2023-02-27T03:34:30.019Z,2.97
2023-02-27T03:37:05.706Z,2.98
2023-02-27T03:39:41.424Z,2.99
2023-02-27T03:42:18.532Z,2.96
2023-02-27T03:44:55.824Z,3.00
2023-02-27T03:47:23.842Z,2.92
2023-02-27T03:49:52.161Z,2.78
2023-02-27T03:52:20.939Z,2.67
2023-02-27T03:54:54.271Z,2.99
2023-02-27T03:57:23.926Z,2.76
2023-02-27T03:59:53.293Z,2.67
2023-02-27T04:02:21.635Z,2.66
2023-02-27T04:04:49.382Z,2.70
2023-02-27T04:07:25.682Z,3.05
2023-02-27T04:10:31.956Z,3.09
2023-02-27T04:13:34.194Z,3.08
2023-02-27T04:16:49.338Z,3.15
2023-02-27T04:19:24.740Z,2.52
2023-02-27T04:22:06.033Z,2.36
2023-02-27T04:24:39.741Z,2.50
2023-02-27T04:27:19.346Z,2.51
2023-02-27T04:29:57.528Z,2.79
2023-02-27T04:32:34.233Z,2.79
2023-02-27T04:35:06.957Z,2.67
2023-02-27T04:37:43.695Z,2.68
2023-02-27T04:40:15.232Z,2.77
2023-02-27T04:42:47.287Z,2.96
2023-02-27T04:45:21.928Z,3.00
2023-02-27T04:47:54.416Z,2.96
2023-02-27T04:50:27.263Z,2.93
2023-02-27T04:53:00.973Z,2.90
2023-02-27T04:55:34.075Z,3.03
2023-02-27T04:58:05.208Z,2.69
2023-02-27T05:00:38.150Z,2.70
2023-02-27T05:03:10.976Z,2.89
2023-02-27T05:05:41.822Z,2.90
2023-02-27T05:08:13.621Z,2.91
2023-02-27T05:10:47.566Z,3.04
2023-02-27T05:13:19.753Z,2.77
2023-02-27T05:15:53.911Z,2.90
2023-02-27T05:18:23.541Z,2.86
2023-02-27T05:20:57.319Z,2.66
2023-02-27T05:23:35.708Z,2.77
2023-02-27T05:26:12.866Z,2.43
2023-02-27T05:28:51.697Z,2.69
2023-02-27T05:31:27.397Z,2.58
2023-02-27T05:34:00.255Z,2.57
2023-02-27T05:36:34.809Z,2.44
2023-02-27T05:39:05.663Z,2.56
2023-02-27T05:41:38.402Z,2.37
2023-02-27T05:44:12.442Z,2.59
2023-02-27T05:46:46.005Z,2.74
2023-02-27T05:49:18.227Z,2.55
2023-02-27T05:51:49.956Z,2.49
2023-02-27T05:54:23.406Z,2.59
2023-02-27T05:56:53.990Z,2.49
2023-02-27T05:59:29.309Z,2.62
2023-02-27T06:01:58.496Z,2.58
2023-02-27T06:04:26.305Z,2.70
2023-02-27T06:06:55.096Z,2.76
2023-02-27T06:09:22.941Z,2.70
2023-02-27T06:11:50.755Z,2.59
2023-02-27T06:14:18.870Z,2.50
2023-02-27T06:16:46.670Z,2.69
2023-02-27T06:19:15.902Z,2.76
2023-02-27T06:21:43.578Z,2.27
2023-02-27T06:24:11.366Z,2.78
2023-02-27T06:26:39.279Z,2.76
2023-02-27T06:29:07.018Z,2.69
2023-02-27T06:31:34.751Z,3.07
2023-02-27T06:34:02.917Z,3.32
2023-02-27T06:36:32.084Z,3.18
2023-02-27T06:38:59.780Z,3.46
2023-02-27T06:41:28.604Z,3.03
2023-02-27T06:43:58.032Z,3.56
2023-02-27T06:46:26.189Z,3.55
2023-02-27T06:48:54.262Z,2.97
2023-02-27T06:51:22.126Z,3.03
2023-02-27T06:53:51.233Z,3.21
2023-02-27T06:56:19.095Z,3.10
2023-02-27T06:58:46.823Z,3.36
2023-02-27T07:01:14.588Z,2.59
2023-02-27T07:03:42.292Z,3.01
2023-02-27T07:06:10.262Z,2.66
2023-02-27T07:08:38.002Z,3.49
2023-02-27T07:11:27.118Z,3.75
2023-02-27T07:13:54.826Z,3.81
2023-02-27T07:16:22.572Z,3.49
2023-02-27T07:18:50.331Z,3.76
2023-02-27T07:21:18.288Z,4.18
2023-02-27T07:23:46.028Z,4.20
2023-02-27T07:26:13.728Z,4.37
2023-02-27T07:28:42.860Z,4.54
2023-02-27T07:31:11.784Z,4.53
2023-02-27T07:33:39.562Z,3.95
2023-02-27T07:36:08.148Z,4.24
2023-02-27T07:38:35.911Z,4.75
2023-02-27T07:41:03.635Z,4.91
2023-02-27T07:43:31.489Z,4.99
2023-02-27T07:46:04.028Z,4.80
2023-02-27T07:48:32.185Z,5.25
2023-02-27T07:51:00.459Z,5.67
2023-02-27T07:53:28.239Z,5.59
2023-02-27T07:55:55.964Z,5.79
2023-02-27T07:58:23.718Z,5.72
2023-02-27T08:00:52.035Z,5.83
2023-02-27T08:03:21.200Z,6.58
2023-02-27T08:05:49.493Z,6.67
2023-02-27T08:08:17.230Z,6.79
2023-02-27T08:10:45.024Z,7.35
2023-02-27T08:13:12.739Z,7.66
2023-02-27T08:15:40.443Z,7.38
2023-02-27T08:18:08.859Z,8.84
2023-02-27T08:20:38.048Z,8.99
2023-02-27T08:23:05.780Z,10.30
2023-02-27T08:25:33.609Z,9.95
2023-02-27T08:28:01.367Z,10.73
2023-02-27T08:30:29.084Z,10.57
2023-02-27T08:32:57.249Z,9.04
2023-02-27T08:35:25.011Z,11.73
2023-02-27T08:37:54.103Z,10.13
2023-02-27T08:40:21.880Z,9.99
2023-02-27T08:42:51.641Z,10.75
2023-02-27T08:45:19.481Z,10.17
2023-02-27T08:47:47.255Z,9.92
2023-02-27T08:50:15.040Z,11.71
2023-02-27T08:52:42.788Z,11.05
2023-02-27T08:55:12.474Z,10.79
2023-02-27T08:57:40.160Z,10.83
2023-02-27T09:00:10.626Z,9.56
2023-02-27T09:02:38.527Z,9.07
2023-02-27T09:05:07.163Z,10.55
2023-02-27T09:07:34.870Z,10.14
2023-02-27T09:10:02.588Z,9.42
2023-02-27T09:12:31.666Z,10.27
2023-02-27T09:14:59.415Z,9.80
2023-02-27T09:17:27.173Z,9.97
2023-02-27T09:19:57.242Z,9.77
2023-02-27T09:22:25.578Z,10.70
2023-02-27T09:24:53.606Z,11.59
2023-02-27T09:27:21.387Z,10.98
2023-02-27T09:29:55.383Z,9.77
2023-02-27T09:32:23.486Z,9.33
2023-02-27T09:34:51.536Z,8.91
2023-02-27T09:37:20.041Z,10.25
2023-02-27T09:39:47.898Z,10.86
2023-02-27T09:42:20.175Z,10.12
2023-02-27T09:44:51.565Z,10.53
2023-02-27T09:47:24.424Z,12.55
2023-02-27T09:50:03.813Z,12.32
2023-02-27T09:52:33.999Z,11.29
2023-02-27T09:55:01.868Z,12.01
2023-02-27T09:57:42.219Z,12.20
2023-02-27T10:00:30.414Z,12.71
2023-02-27T10:03:07.605Z,12.61
2023-02-27T10:05:42.210Z,11.91
2023-02-27T10:08:18.051Z,12.79
2023-02-27T10:10:55.089Z,12.89
2023-02-27T10:13:40.443Z,12.56
2023-02-27T10:16:12.915Z,12.63
2023-02-27T10:18:52.102Z,13.85
2023-02-27T10:21:25.338Z,12.36
2023-02-27T10:23:57.548Z,12.91
2023-02-27T10:26:30.028Z,11.72
2023-02-27T10:28:59.149Z,10.97
2023-02-27T10:31:32.729Z,10.60
2023-02-27T10:34:02.225Z,9.20
2023-02-27T10:36:34.368Z,11.27
2023-02-27T10:39:06.097Z,10.79
2023-02-27T10:41:35.826Z,11.32
2023-02-27T10:44:03.641Z,10.89
2023-02-27T10:46:35.965Z,11.41
2023-02-27T10:49:13.482Z,11.02
2023-02-27T10:51:41.198Z,12.27
2023-02-27T10:54:23.628Z,11.48
2023-02-27T10:56:53.575Z,12.74
2023-02-27T10:59:25.067Z,11.64
2023-02-27T11:01:56.336Z,12.01
2023-02-27T11:04:31.506Z,12.35
2023-02-27T11:07:01.569Z,12.92
2023-02-27T11:09:32.492Z,13.35
2023-02-27T11:12:13.160Z,11.18
2023-02-27T11:14:50.832Z,10.32
2023-02-27T11:17:26.796Z,9.65
2023-02-27T11:19:54.596Z,11.82
2023-02-27T11:22:24.851Z,11.21
2023-02-27T11:24:53.365Z,12.43
2023-02-27T11:27:26.488Z,12.06
2023-02-27T11:29:59.207Z,11.48
2023-02-27T11:32:37.198Z,12.73
2023-02-27T11:35:06.448Z,12.65
2023-02-27T11:37:36.545Z,12.00
2023-02-27T11:40:15.769Z,13.10
2023-02-27T11:42:46.914Z,13.64
2023-02-27T11:46:18.991Z,12.92
2023-02-27T11:48:22.362Z,13.59
2023-02-27T11:51:09.569Z,13.45
2023-02-27T11:53:59.368Z,14.15
2023-02-27T11:56:33.366Z,14.58
2023-02-27T11:59:05.725Z,13.91
2023-02-27T12:01:40.355Z,13.67
2023-02-27T12:04:19.157Z,14.33
2023-02-27T12:06:53.046Z,12.99
2023-02-27T12:09:34.024Z,12.99
2023-02-27T12:12:03.869Z,14.06
2023-02-27T12:14:41.861Z,12.94
2023-02-27T12:17:16.445Z,14.58
2023-02-27T12:19:56.722Z,14.18
2023-02-27T12:22:29.049Z,13.22
2023-02-27T12:25:01.197Z,13.55
2023-02-27T12:27:39.031Z,13.29
2023-02-27T12:30:14.365Z,15.29
2023-02-27T12:32:44.839Z,14.52
2023-02-27T12:35:18.165Z,14.89
2023-02-27T12:37:46.304Z,14.62
2023-02-27T12:40:18.151Z,14.64
2023-02-27T12:43:14.004Z,14.57
2023-02-27T12:45:59.044Z,13.94
2023-02-27T12:48:41.355Z,13.83
2023-02-27T12:51:22.558Z,13.32
2023-02-27T12:54:04.904Z,13.51
2023-02-27T12:56:42.207Z,12.68
2023-02-27T12:59:23.808Z,12.14
2023-02-27T13:01:59.283Z,13.16
2023-02-27T13:04:33.697Z,12.88
2023-02-27T13:07:09.859Z,13.82
2023-02-27T13:09:45.220Z,15.05
2023-02-27T13:12:23.704Z,14.76
2023-02-27T13:14:57.826Z,13.82
2023-02-27T13:17:32.607Z,12.72
2023-02-27T13:20:07.334Z,14.04
2023-02-27T13:22:43.815Z,13.37
2023-02-27T13:25:15.841Z,12.62
2023-02-27T13:27:48.527Z,12.66
2023-02-27T13:30:22.834Z,12.09
2023-02-27T13:32:57.080Z,12.48
2023-02-27T13:35:39.480Z,12.16
2023-02-27T13:38:32.243Z,12.39
2023-02-27T13:41:39.275Z,11.35
2023-02-27T13:44:39.384Z,10.47
2023-02-27T13:47:40.848Z,9.41
2023-02-27T13:50:45.681Z,8.82
2023-02-27T13:53:21.200Z,9.98
2023-02-27T13:55:49.145Z,10.81
2023-02-27T13:58:21.772Z,10.02
2023-02-27T14:00:58.453Z,9.69
2023-02-27T14:03:30.108Z,10.11
2023-02-27T14:06:03.062Z,10.03
2023-02-27T14:08:38.531Z,9.53
2023-02-27T14:11:18.721Z,9.09
2023-02-27T14:14:05.136Z,9.43
2023-02-27T14:16:58.193Z,9.39
2023-02-27T14:19:57.186Z,9.77
2023-02-27T14:23:09.606Z,9.40
2023-02-27T14:25:41.167Z,8.71
2023-02-27T14:28:21.265Z,9.31
2023-02-27T14:30:54.408Z,9.13
2023-02-27T14:33:39.154Z,9.22
2023-02-27T14:36:10.412Z,9.51
2023-02-27T14:38:39.599Z,9.59
2023-02-27T14:41:23.331Z,9.24
2023-02-27T14:43:56.756Z,8.68
2023-02-27T14:46:28.491Z,9.60
2023-02-27T14:48:57.952Z,10.29
2023-02-27T14:51:27.172Z,10.96
2023-02-27T14:54:07.312Z,9.93
2023-02-27T14:56:36.564Z,9.58
2023-02-27T14:59:05.192Z,10.20
2023-02-27T15:01:37.041Z,9.69
2023-02-27T15:04:05.896Z,8.88
2023-02-27T15:06:38.661Z,9.96
2023-02-27T15:09:07.708Z,9.88
2023-02-27T15:11:46.472Z,9.55
2023-02-27T15:14:21.977Z,9.16
2023-02-27T15:16:55.812Z,8.93
2023-02-27T15:19:25.729Z,8.39
2023-02-27T15:21:55.189Z,8.87
2023-02-27T15:24:26.324Z,9.67
2023-02-27T15:26:59.302Z,9.53
2023-02-27T15:29:34.717Z,8.72
2023-02-27T15:32:03.107Z,9.46
2023-02-27T15:34:31.323Z,9.36
2023-02-27T15:37:00.876Z,8.94
2023-02-27T15:39:31.305Z,9.76
2023-02-27T15:42:03.934Z,10.75
2023-02-27T15:44:37.871Z,11.22
2023-02-27T15:47:06.586Z,11.40
2023-02-27T15:49:34.434Z,10.38
2023-02-27T15:52:05.536Z,11.19
2023-02-27T15:54:34.486Z,10.58
2023-02-27T15:57:06.728Z,10.92
2023-02-27T15:59:37.937Z,10.67
2023-02-27T16:02:07.058Z,10.81
2023-02-27T16:04:35.750Z,10.56
2023-02-27T16:07:08.167Z,10.76
2023-02-27T16:09:38.325Z,9.62
2023-02-27T16:12:25.391Z,9.41
2023-02-27T16:14:54.482Z,8.55
2023-02-27T16:17:28.003Z,8.78
2023-02-27T16:19:57.324Z,8.87
2023-02-27T16:22:25.290Z,8.43
2023-02-27T16:24:54.540Z,8.19
2023-02-27T16:27:26.831Z,8.07
2023-02-27T16:29:56.477Z,8.01
2023-02-27T16:32:27.321Z,7.82
2023-02-27T16:35:03.826Z,7.82
2023-02-27T16:37:43.115Z,7.78
2023-02-27T16:40:15.359Z,8.06
2023-02-27T16:42:45.962Z,8.13
2023-02-27T16:45:17.151Z,8.31
2023-02-27T16:47:45.160Z,7.81
2023-02-27T16:50:17.449Z,8.11
2023-02-27T16:52:45.273Z,7.99
2023-02-27T16:55:12.998Z,7.65
2023-02-27T16:57:40.722Z,7.88
2023-02-27T17:00:12.782Z,8.02
2023-02-27T17:02:43.818Z,8.24
2023-02-27T17:05:12.070Z,8.15
2023-02-27T17:07:39.854Z,8.00
2023-02-27T17:10:08.350Z,7.88
2023-02-27T17:12:36.782Z,8.02
2023-02-27T17:15:04.836Z,7.90
2023-02-27T17:17:36.203Z,7.91
2023-02-27T17:20:07.445Z,7.68
2023-02-27T17:22:36.748Z,7.83
2023-02-27T17:25:04.950Z,7.69
2023-02-27T17:27:32.729Z,8.04
2023-02-27T17:30:00.459Z,7.82
2023-02-27T17:32:28.205Z,7.57
2023-02-27T17:34:59.182Z,7.58
2023-02-27T17:37:27.098Z,7.55
2023-02-27T17:39:55.418Z,7.56
2023-02-27T17:42:25.671Z,7.78
2023-02-27T17:44:53.643Z,8.17
2023-02-27T17:47:21.362Z,8.09
2023-02-27T17:49:49.261Z,7.61
2023-02-27T17:52:18.545Z,7.29
2023-02-27T17:54:46.224Z,7.19
2023-02-27T17:57:13.985Z,7.31
2023-02-27T17:59:43.245Z,7.49
2023-02-27T18:02:11.929Z,7.47
2023-02-27T18:04:39.835Z,7.09
2023-02-27T18:07:07.911Z,6.91
2023-02-27T18:09:36.961Z,7.12
2023-02-27T18:12:04.932Z,7.20
2023-02-27T18:14:32.706Z,7.18
2023-02-27T18:17:00.445Z,6.72
2023-02-27T18:19:32.261Z,7.59
2023-02-27T18:22:00.594Z,7.53
2023-02-27T18:24:28.301Z,7.73
2023-02-27T18:26:57.758Z,7.48
2023-02-27T18:29:25.486Z,7.26
2023-02-27T18:31:54.806Z,7.67
2023-02-27T18:34:23.627Z,6.92
2023-02-27T18:36:52.279Z,6.92
2023-02-27T18:39:20.574Z,6.84
2023-02-27T18:41:48.299Z,6.68
2023-02-27T18:44:17.380Z,6.86
2023-02-27T18:46:45.132Z,7.01
2023-02-27T18:49:12.878Z,7.12
2023-02-27T18:51:40.600Z,7.57
2023-02-27T18:54:08.470Z,7.86
2023-02-27T18:56:36.177Z,8.09
2023-02-27T18:59:05.322Z,8.07
2023-02-27T19:01:38.339Z,7.29
2023-02-27T19:04:07.792Z,6.86
2023-02-27T19:06:38.961Z,7.02
2023-02-27T19:09:07.421Z,7.70
2023-02-27T19:11:35.757Z,6.67
2023-02-27T19:14:05.480Z,6.77
2023-02-27T19:16:34.789Z,6.67
2023-02-27T19:19:04.866Z,6.79
2023-02-27T19:21:33.731Z,7.16
2023-02-27T19:24:02.416Z,7.11
2023-02-27T19:26:30.673Z,6.80
2023-02-27T19:28:58.568Z,6.91
2023-02-27T19:31:26.514Z,6.57
2023-02-27T19:33:55.835Z,6.61
2023-02-27T19:36:25.453Z,6.23
2023-02-27T19:38:55.372Z,6.06
2023-02-27T19:41:24.403Z,6.38
2023-02-27T19:43:54.856Z,6.12
2023-02-27T19:46:27.736Z,6.76
2023-02-27T19:49:00.878Z,6.91
2023-02-27T19:51:29.001Z,6.28
2023-02-27T19:53:56.905Z,6.46
2023-02-27T19:56:26.300Z,6.66
2023-02-27T19:58:55.009Z,6.49
2023-02-27T20:01:27.683Z,6.68
2023-02-27T20:03:57.829Z,6.87
2023-02-27T20:06:28.084Z,6.65
2023-02-27T20:08:57.125Z,6.97
2023-02-27T20:11:25.271Z,7.44
2023-02-27T20:13:53.148Z,7.00
2023-02-27T20:16:24.006Z,6.63
2023-02-27T20:18:51.781Z,6.43
2023-02-27T20:21:22.679Z,6.64
2023-02-27T20:23:51.637Z,6.15
2023-02-27T20:26:21.670Z,6.10
2023-02-27T20:28:51.943Z,6.06
2023-02-27T20:31:22.130Z,6.54
2023-02-27T20:33:50.417Z,6.19
2023-02-27T20:36:20.023Z,6.37
2023-02-27T20:38:48.010Z,6.17
2023-02-27T20:41:18.949Z,6.26
2023-02-27T20:43:47.066Z,5.60
2023-02-27T20:46:17.193Z,5.87
2023-02-27T20:48:45.573Z,5.53
2023-02-27T20:51:15.225Z,5.64
2023-02-27T20:53:46.923Z,5.89
2023-02-27T20:56:15.782Z,5.73
2023-02-27T20:58:43.531Z,6.01
2023-02-27T21:01:12.974Z,6.47
2023-02-27T21:03:41.769Z,7.35
2023-02-27T21:06:11.308Z,7.02
2023-02-27T21:08:40.607Z,7.18
2023-02-27T21:11:11.641Z,7.19
2023-02-27T21:13:39.425Z,6.71
2023-02-27T21:16:10.354Z,6.30
2023-02-27T21:18:38.684Z,6.66
2023-02-27T21:21:08.109Z,6.43
2023-02-27T21:23:41.025Z,6.57
2023-02-27T21:26:11.084Z,6.68
2023-02-27T21:28:42.546Z,6.63
2023-02-27T21:31:10.252Z,6.12
2023-02-27T21:33:38.026Z,5.81
2023-02-27T21:36:06.342Z,5.77
2023-02-27T21:38:34.045Z,5.60
2023-02-27T21:41:06.922Z,5.66
2023-02-27T21:43:36.293Z,5.54
2023-02-27T21:46:07.428Z,5.79
2023-02-27T21:48:35.648Z,5.77
2023-02-27T21:51:04.509Z,5.81
2023-02-27T21:53:32.639Z,5.47
2023-02-27T21:56:03.770Z,6.10
2023-02-27T21:58:31.538Z,5.60
2023-02-27T22:01:00.862Z,5.33
2023-02-27T22:03:34.162Z,5.19
2023-02-27T22:06:02.475Z,5.13
2023-02-27T22:08:30.234Z,5.35
2023-02-27T22:10:58.372Z,5.54
2023-02-27T22:13:26.139Z,5.69
2023-02-27T22:15:54.556Z,5.33
2023-02-27T22:18:23.689Z,5.51
2023-02-27T22:20:51.396Z,4.87
2023-02-27T22:23:19.293Z,5.10
2023-02-27T22:25:47.022Z,5.22
2023-02-27T22:28:14.789Z,5.68
2023-02-27T22:30:42.482Z,5.83
2023-02-27T22:33:10.233Z,5.63
2023-02-27T22:35:39.369Z,5.35
2023-02-27T22:38:07.119Z,4.92
2023-02-27T22:40:36.129Z,4.99
2023-02-27T22:43:03.901Z,5.17
2023-02-27T22:45:31.653Z,5.23
2023-02-27T22:47:59.397Z,5.10
2023-02-27T22:50:27.111Z,5.45
2023-02-27T22:52:56.188Z,5.44
2023-02-27T22:55:24.933Z,5.26
2023-02-27T22:57:52.652Z,4.73
2023-02-27T23:00:20.645Z,4.64
2023-02-27T23:02:48.378Z,4.57
2023-02-27T23:05:16.162Z,4.57
2023-02-27T23:07:43.874Z,4.48
2023-02-27T23:10:13.314Z,4.29
2023-02-27T23:12:41.073Z,4.38
2023-02-27T23:15:10.470Z,4.27
2023-02-27T23:17:52.078Z,4.31
2023-02-27T23:20:24.195Z,4.64
2023-02-27T23:22:53.097Z,4.99
2023-02-27T23:25:22.234Z,4.94
2023-02-27T23:27:49.952Z,5.01
2023-02-27T23:30:17.974Z,5.37
2023-02-27T23:32:45.754Z,4.41
2023-02-27T23:35:16.244Z,5.00
2023-02-27T23:37:43.973Z,5.25
2023-02-27T23:40:12.976Z,4.54
2023-02-27T23:42:42.034Z,4.32
2023-02-27T23:45:10.748Z,4.43
2023-02-27T23:47:44.914Z,4.35
2023-02-27T23:50:13.449Z,4.60
2023-02-27T23:52:41.164Z,4.37
2023-02-27T23:55:09.754Z,3.99
2023-02-27T23:57:37.498Z,4.07
